»·PEaware :: N445SN KSMX-KBFL

N445SN :: KSMX-KBFL

FLIGHT INFORMATION

Flight Status: Arrived
Operator: Privately registered:
United States
More flights under this callsign
Pilot: Jeremy W. (20490)
Aircraft: CESSNA 152 AEROBAT
(C152)
More flights by this aircraft type
Origin: KSMX Santa Maria Pub/Capt Hancock
United States
Destination: KBFL Meadows
United States
More flights between these airports :: More routes between these airports
Route: FLW
File this flight plan on PilotEdge
Remarks:
Altitude:
(Current/Filed)
7,500ft
Speed:
(Current/Filed)
107kts
Departed: 29-Sep-18 07:52 PM
Arrived: 29-Sep-18 08:43 PM
Distance/Time
Traveled:
76nm/0:51
Distance/Time
To Go:
Arrived

Flight Plot

Page will automatically refresh every two minutes.


Map Options




Map Legend


Flown Route
Filed Route
Departure Airport
Arrival Airport
Navaid (VOR, NDB)
Fix

Horizontal Profiles

Position Reports

Time Latitude Longitude Heading Altitude Ground
Speed
29-Sep-18 19:45 34.901383 -120.450785 154 264ft 0kts
29-Sep-18 19:46 34.901122 -120.450712 176 264ft 6kts
29-Sep-18 19:47 34.900241 -120.450746 193 264ft 0kts
29-Sep-18 19:48 34.900241 -120.450746 193 264ft 0kts
29-Sep-18 19:49 34.900239 -120.450747 195 264ft 0kts
29-Sep-18 19:50 34.898737 -120.450399 135 264ft 9kts
29-Sep-18 19:51 34.896617 -120.447870 136 264ft 11kts
29-Sep-18 19:52 34.894047 -120.445381 179 264ft 11kts
29-Sep-18 19:53 34.893720 -120.445384 178 264ft 1kts
29-Sep-18 19:54 34.895266 -120.448810 313 264ft 63kts
29-Sep-18 19:55 34.910913 -120.465313 339 877ft 77kts
29-Sep-18 19:56 34.927491 -120.449672 58 1543ft 88kts
29-Sep-18 19:57 34.941751 -120.426293 55 2154ft 88kts
29-Sep-18 19:58 34.954543 -120.401904 48 2835ft 83kts
29-Sep-18 19:59 34.962876 -120.376419 67 3483ft 80kts
29-Sep-18 20:00 34.969293 -120.351518 67 4060ft 78kts
29-Sep-18 20:01 34.975651 -120.326735 68 4617ft 77kts
29-Sep-18 20:02 34.982429 -120.300444 68 5052ft 88kts
29-Sep-18 20:03 34.988378 -120.277195 66 5447ft 89kts
29-Sep-18 20:04 34.993854 -120.255767 68 5807ft 89kts
29-Sep-18 20:05 34.999355 -120.234242 67 6171ft 89kts
29-Sep-18 20:06 35.006565 -120.205883 65 6656ft 85kts
29-Sep-18 20:07 35.013316 -120.179651 67 7132ft 77kts
29-Sep-18 20:08 35.020027 -120.153410 68 7493ft 86kts
29-Sep-18 20:09 35.028339 -120.120888 73 7497ft 105kts
29-Sep-18 20:10 35.036873 -120.087279 72 7494ft 103kts
29-Sep-18 20:11 35.045427 -120.053535 72 7493ft 104kts
29-Sep-18 20:12 35.053971 -120.020006 72 7496ft 103kts
29-Sep-18 20:13 35.062534 -119.986290 72 7495ft 103kts
29-Sep-18 20:14 35.071051 -119.952696 72 7497ft 103kts
29-Sep-18 20:15 35.079578 -119.919065 71 7497ft 103kts
29-Sep-18 20:16 35.088352 -119.885546 69 7496ft 103kts
29-Sep-18 20:17 35.098978 -119.853054 61 7496ft 103kts
29-Sep-18 20:18 35.111156 -119.821820 62 7494ft 103kts
29-Sep-18 20:19 35.124103 -119.790274 60 7449ft 105kts
29-Sep-18 20:20 35.137059 -119.758774 60 7440ft 102kts
29-Sep-18 20:21 35.149655 -119.728110 61 7440ft 100kts
29-Sep-18 20:22 35.161917 -119.698193 60 7496ft 97kts
29-Sep-18 20:23 35.174146 -119.668234 60 7497ft 99kts
29-Sep-18 20:24 35.186607 -119.637772 61 7496ft 100kts
29-Sep-18 20:25 35.198992 -119.607431 59 7496ft 99kts
29-Sep-18 20:26 35.211399 -119.577021 60 7499ft 100kts
29-Sep-18 20:27 35.223824 -119.546429 59 7497ft 100kts
29-Sep-18 20:28 35.236144 -119.516201 60 7496ft 100kts
29-Sep-18 20:29 35.248510 -119.485768 60 7498ft 100kts
29-Sep-18 20:30 35.260958 -119.455178 61 7499ft 100kts
29-Sep-18 20:31 35.273330 -119.424614 61 7495ft 100kts
29-Sep-18 20:32 35.285712 -119.394148 60 7495ft 100kts
29-Sep-18 20:33 35.297988 -119.363775 58 7493ft 99kts
29-Sep-18 20:34 35.310126 -119.333540 61 7497ft 99kts
29-Sep-18 20:35 35.322541 -119.302450 61 7014ft 102kts
29-Sep-18 20:36 35.334951 -119.271412 61 6527ft 102kts
29-Sep-18 20:37 35.347594 -119.240098 61 6028ft 102kts
29-Sep-18 20:38 35.360369 -119.208325 61 5365ft 110kts
29-Sep-18 20:39 35.373701 -119.175137 61 4338ft 100kts
29-Sep-18 20:40 35.384799 -119.143435 70 3150ft 102kts
29-Sep-18 20:41 35.390131 -119.110827 71 2029ft 94kts
29-Sep-18 20:42 35.397906 -119.079251 70 1415ft 100kts
29-Sep-18 20:43 35.407432 -119.050547 58 1050ft 76kts
29-Sep-18 20:44 35.422338 -119.046492 329 674ft 66kts
29-Sep-18 20:45 35.433301 -119.059021 318 480ft 26kts
29-Sep-18 20:46 35.434801 -119.060062 44 484ft 0kts
29-Sep-18 20:47 35.435973 -119.058299 56 489ft 8kts
29-Sep-18 20:48 35.434964 -119.055319 137 491ft 16kts
29-Sep-18 20:49 35.432806 -119.051932 36 495ft 7kts
29-Sep-18 20:50 35.433146 -119.049161 104 502ft 12kts

Navigation Log

Ident Type
1. KSMX Airport
2. FLW Navaid
3. KBFL Airport